Time;durP1;ratioP1;P1;durP2;ratioP2;P2;SDS_P1;SDS_P2;PMS_P1;PMS_P2;Temp;Humidity;BMP_temperature;BMP_pressure;BME280_temperature;BME280_humidity;BME280_pressure;Samples;Min_cycle;Max_cycle;Signal;HPM_P1;HPM_P2
2024/03/12 00:00:23;;;;;;;84.43;33.23;;;8.40;99.90;;;;;;5064544;28;20170;-84
2024/03/12 00:02:50;;;;;;;79.27;33.40;;;8.40;99.90;;;;;;5060689;28;20178;-85
2024/03/12 00:05:20;;;;;;;88.03;34.90;;;8.40;99.90;;;;;;5077616;28;20170;-83
2024/03/12 00:07:50;;;;;;;90.00;35.97;;;8.40;99.90;;;;;;5043872;28;20210;-86
2024/03/12 00:10:19;;;;;;;76.87;32.97;;;8.40;99.90;;;;;;5078036;28;20175;-85
2024/03/12 00:12:49;;;;;;;75.07;32.07;;;8.40;99.90;;;;;;5077995;28;20617;-84
2024/03/12 00:15:19;;;;;;;71.63;31.63;;;8.30;99.90;;;;;;5059438;28;20228;-84
2024/03/12 00:17:46;;;;;;;70.77;28.60;;;8.30;99.90;;;;;;5059952;28;20186;-85
2024/03/12 00:20:17;;;;;;;71.17;32.43;;;8.20;99.90;;;;;;5061440;28;20589;-85
2024/03/12 00:22:47;;;;;;;73.63;31.97;;;8.30;99.90;;;;;;5059990;28;20186;-85
2024/03/12 00:25:19;;;;;;;70.47;30.37;;;8.30;99.90;;;;;;5059859;28;20178;-85
2024/03/12 00:27:45;;;;;;;70.87;29.70;;;8.30;99.90;;;;;;5059574;28;20201;-85
2024/03/12 00:30:11;;;;;;;71.80;32.20;;;8.30;99.90;;;;;;5059363;28;20188;-85
2024/03/12 00:32:38;;;;;;;67.27;32.10;;;8.30;99.90;;;;;;5077573;28;20206;-85
2024/03/12 00:35:05;;;;;;;80.73;33.47;;;8.30;99.90;;;;;;5078151;28;20243;-85
2024/03/12 00:37:31;;;;;;;84.80;35.00;;;8.30;99.90;;;;;;5043252;28;20209;-85
2024/03/12 00:39:59;;;;;;;87.13;35.33;;;8.30;99.90;;;;;;5059813;28;20178;-86
2024/03/12 00:42:26;;;;;;;94.47;36.40;;;8.30;99.90;;;;;;5059408;28;20182;-84
2024/03/12 00:44:52;;;;;;;85.27;37.37;;;8.20;99.90;;;;;;5060212;28;20271;-85
2024/03/12 00:47:21;;;;;;;104.90;40.00;;;8.20;99.90;;;;;;5059846;28;20691;-84
2024/03/12 00:49:50;;;;;;;81.10;37.03;;;8.20;99.90;;;;;;5078230;28;20600;-85
2024/03/12 00:52:17;;;;;;;101.10;42.83;;;8.20;99.90;;;;;;5078225;28;20202;-87
2024/03/12 00:54:45;;;;;;;103.20;42.07;;;8.20;99.90;;;;;;5080014;28;20690;-84
2024/03/12 00:57:13;;;;;;;106.13;43.00;;;8.20;99.90;;;;;;5059754;28;20200;-86
2024/03/12 00:59:40;;;;;;;123.20;50.27;;;8.30;99.90;;;;;;5059954;28;20296;-85
2024/03/12 01:02:07;;;;;;;112.37;45.03;;;8.20;99.90;;;;;;5061367;28;20421;-84
2024/03/12 01:04:32;;;;;;;110.40;45.87;;;8.20;99.90;;;;;;5059177;28;20547;-84
2024/03/12 01:06:59;;;;;;;116.93;49.43;;;8.20;99.90;;;;;;5058547;28;20190;-84
2024/03/12 01:09:27;;;;;;;106.43;47.03;;;8.20;99.90;;;;;;5076383;28;20204;-84
2024/03/12 01:11:53;;;;;;;110.17;45.90;;;8.20;99.90;;;;;;5058425;28;20184;-85
2024/03/12 01:14:21;;;;;;;109.87;47.43;;;8.10;99.90;;;;;;5058387;28;20623;-84
2024/03/12 01:16:46;;;;;;;110.93;46.43;;;8.10;99.90;;;;;;5042055;28;20178;-85
2024/03/12 01:19:14;;;;;;;112.50;46.53;;;8.00;99.90;;;;;;5059769;28;20186;-84
2024/03/12 01:21:40;;;;;;;107.73;46.43;;;8.00;99.90;;;;;;5059823;28;20257;-84
2024/03/12 01:24:08;;;;;;;101.10;45.07;;;7.90;99.90;;;;;;5077617;28;20622;-85
2024/03/12 01:26:35;;;;;;;94.53;44.73;;;7.90;99.90;;;;;;5077742;28;20261;-84
2024/03/12 01:29:03;;;;;;;106.00;45.03;;;7.90;99.90;;;;;;5084490;28;20571;-85
2024/03/12 01:31:31;;;;;;;107.33;46.30;;;7.90;99.90;;;;;;5078605;28;20166;-85
2024/03/12 01:33:56;;;;;;;105.77;47.27;;;8.00;99.90;;;;;;5060428;28;20289;-85
2024/03/12 01:36:34;;;;;;;109.07;46.13;;;7.90;99.90;;;;;;5061046;28;20217;-85
2024/03/12 01:39:04;;;;;;;105.43;45.83;;;8.00;99.90;;;;;;5060979;28;20193;-85
2024/03/12 01:41:41;;;;;;;111.13;47.03;;;8.00;99.90;;;;;;5081718;28;20505;-85
2024/03/12 01:44:08;;;;;;;95.33;44.40;;;8.00;99.90;;;;;;5056304;28;20174;-85
2024/03/12 01:46:35;;;;;;;107.67;47.20;;;8.00;99.90;;;;;;5057850;28;20279;-86
2024/03/12 01:49:04;;;;;;;113.57;49.93;;;8.00;99.90;;;;;;5057465;28;20186;-85
2024/03/12 01:51:31;;;;;;;96.97;45.47;;;8.00;99.90;;;;;;5057700;28;20193;-85
2024/03/12 01:53:57;;;;;;;108.80;45.53;;;8.00;99.90;;;;;;5058004;28;20209;-85
2024/03/12 01:56:26;;;;;;;110.43;47.60;;;7.90;99.90;;;;;;5058426;28;20232;-85
2024/03/12 01:58:52;;;;;;;105.87;45.17;;;7.90;99.90;;;;;;5070466;28;20197;-83
2024/03/12 02:01:21;;;;;;;106.87;48.23;;;7.90;99.90;;;;;;5080299;28;20183;-82
2024/03/12 02:03:48;;;;;;;109.10;47.30;;;8.00;99.90;;;;;;5065741;28;20283;-85
2024/03/12 02:06:16;;;;;;;110.83;46.80;;;8.00;99.90;;;;;;5058860;28;20668;-86
2024/03/12 02:08:41;;;;;;;95.63;43.13;;;8.00;99.90;;;;;;5045008;28;20209;-85
2024/03/12 02:11:08;;;;;;;97.20;45.17;;;8.00;99.90;;;;;;5059178;28;20178;-86
2024/03/12 02:13:34;;;;;;;93.63;43.07;;;8.00;99.90;;;;;;5074436;28;20351;-84
2024/03/12 02:15:59;;;;;;;109.83;46.73;;;7.90;99.90;;;;;;5059775;28;20240;-86
2024/03/12 02:18:25;;;;;;;102.47;45.83;;;7.90;99.90;;;;;;5057505;28;20198;-85
2024/03/12 02:20:51;;;;;;;105.67;42.67;;;7.90;99.90;;;;;;5075590;28;20170;-85
2024/03/12 02:23:17;;;;;;;99.27;41.73;;;7.90;99.90;;;;;;5040575;28;20205;-85
2024/03/12 02:25:43;;;;;;;91.80;41.73;;;7.90;99.90;;;;;;5057408;28;20178;-86
2024/03/12 02:28:08;;;;;;;102.00;42.17;;;7.90;99.90;;;;;;5040506;28;20217;-84
2024/03/12 02:30:34;;;;;;;93.00;42.30;;;7.90;99.90;;;;;;5057671;28;20537;-85
2024/03/12 02:33:02;;;;;;;89.57;41.73;;;7.90;99.90;;;;;;5056637;28;20205;-84
2024/03/12 02:35:28;;;;;;;94.40;41.50;;;7.90;99.90;;;;;;5075287;28;20190;-84
2024/03/12 02:37:54;;;;;;;88.20;38.80;;;7.80;99.90;;;;;;5058593;28;20553;-85
2024/03/12 02:40:20;;;;;;;78.00;38.90;;;7.90;99.90;;;;;;5074966;28;20181;-84
2024/03/12 02:42:47;;;;;;;88.60;37.73;;;7.90;99.90;;;;;;5075166;28;20635;-85
2024/03/12 02:45:15;;;;;;;74.50;36.70;;;7.80;99.90;;;;;;5056599;28;20192;-87
2024/03/12 02:47:42;;;;;;;76.73;34.83;;;7.80;99.90;;;;;;5057423;28;20208;-84
2024/03/12 02:50:08;;;;;;;82.43;35.10;;;7.80;99.90;;;;;;5058261;28;20307;-84
2024/03/12 02:52:34;;;;;;;78.50;33.20;;;7.80;99.90;;;;;;5057759;28;20210;-84
2024/03/12 02:55:00;;;;;;;68.50;33.43;;;7.80;99.90;;;;;;5058031;28;20662;-84
2024/03/12 02:57:27;;;;;;;63.77;31.43;;;7.80;99.90;;;;;;5076414;28;20230;-83
2024/03/12 02:59:52;;;;;;;68.33;31.43;;;7.90;99.90;;;;;;5063281;28;20170;-86
2024/03/12 03:02:18;;;;;;;65.60;31.43;;;7.80;99.90;;;;;;5060006;28;20189;-83
2024/03/12 03:04:44;;;;;;;60.17;29.80;;;7.80;99.90;;;;;;5057701;28;20186;-83
2024/03/12 03:07:11;;;;;;;57.83;27.43;;;7.80;99.90;;;;;;5041194;28;20620;-84
2024/03/12 03:09:37;;;;;;;53.80;27.20;;;7.70;99.90;;;;;;5057522;28;20182;-83
2024/03/12 03:12:03;;;;;;;58.70;28.30;;;7.70;99.90;;;;;;5057433;28;20178;-83
2024/03/12 03:14:28;;;;;;;50.83;26.83;;;7.60;99.90;;;;;;5056878;28;20174;-84
2024/03/12 03:16:54;;;;;;;51.93;25.67;;;7.70;99.90;;;;;;5040143;28;20182;-84
2024/03/12 03:19:20;;;;;;;46.33;25.47;;;7.60;99.90;;;;;;5074489;28;20198;-83
2024/03/12 03:21:46;;;;;;;51.77;27.47;;;7.60;99.90;;;;;;5057609;28;20192;-83
2024/03/12 03:24:12;;;;;;;55.97;26.37;;;7.60;99.90;;;;;;5057221;28;20183;-84
2024/03/12 03:26:38;;;;;;;55.20;25.63;;;7.60;99.90;;;;;;5057505;28;20723;-84
2024/03/12 03:29:03;;;;;;;47.43;24.27;;;7.60;99.90;;;;;;5058676;28;20217;-83
2024/03/12 03:31:29;;;;;;;43.30;22.83;;;7.70;99.90;;;;;;5080329;28;20230;-83
2024/03/12 03:34:04;;;;;;;35.97;21.87;;;7.60;99.90;;;;;;5065165;28;20198;-84
2024/03/12 03:36:31;;;;;;;29.33;18.60;;;7.60;99.90;;;;;;5062979;28;20201;-84
2024/03/12 03:38:57;;;;;;;34.93;20.20;;;7.50;99.90;;;;;;5063189;28;20201;-84
2024/03/12 03:41:23;;;;;;;29.57;18.10;;;7.50;99.90;;;;;;5059332;28;20201;-83
2024/03/12 03:43:48;;;;;;;29.10;17.10;;;7.40;99.90;;;;;;5077754;28;20197;-83
2024/03/12 03:46:14;;;;;;;29.27;19.13;;;7.40;99.90;;;;;;5064945;28;20194;-84
2024/03/12 03:48:42;;;;;;;31.07;17.23;;;7.40;99.90;;;;;;5058607;28;20702;-84
2024/03/12 03:51:08;;;;;;;31.20;17.10;;;7.40;99.90;;;;;;5043807;28;20190;-84
2024/03/12 03:53:34;;;;;;;24.83;17.33;;;7.30;99.90;;;;;;5059896;28;20211;-84
2024/03/12 03:55:59;;;;;;;29.03;17.47;;;7.30;99.90;;;;;;5062333;28;20593;-84
2024/03/12 03:58:25;;;;;;;31.23;18.40;;;7.30;99.90;;;;;;5061489;28;20682;-83
2024/03/12 04:00:51;;;;;;;43.30;23.23;;;7.30;99.90;;;;;;5060004;28;20189;-84
2024/03/12 04:03:17;;;;;;;45.83;22.30;;;7.40;99.90;;;;;;5078006;28;20178;-84
2024/03/12 04:05:43;;;;;;;46.10;25.60;;;7.40;99.90;;;;;;5077984;28;20188;-84
2024/03/12 04:08:08;;;;;;;49.67;26.07;;;7.40;99.90;;;;;;5060330;28;20656;-84
2024/03/12 04:10:34;;;;;;;58.33;29.87;;;7.50;99.90;;;;;;5058826;28;20188;-84
2024/03/12 04:13:00;;;;;;;62.83;31.83;;;7.50;99.90;;;;;;5058785;28;20210;-84
2024/03/12 04:15:29;;;;;;;68.97;32.67;;;7.50;99.90;;;;;;5066592;28;20224;-84
2024/03/12 04:17:55;;;;;;;57.43;30.90;;;7.50;99.90;;;;;;5059439;28;20247;-84
2024/03/12 04:20:21;;;;;;;65.50;32.73;;;7.60;99.90;;;;;;5077397;28;20182;-83
2024/03/12 04:22:47;;;;;;;67.73;30.40;;;7.60;99.90;;;;;;5078605;28;20655;-84
2024/03/12 04:25:15;;;;;;;52.40;29.63;;;7.50;99.90;;;;;;5077868;28;20232;-85
2024/03/12 04:27:41;;;;;;;59.87;30.60;;;7.60;99.90;;;;;;5058451;28;20206;-84
2024/03/12 04:30:13;;;;;;;55.80;28.23;;;7.50;99.90;;;;;;5059225;28;20182;-84
2024/03/12 04:32:40;;;;;;;54.70;28.53;;;7.50;99.90;;;;;;5076684;28;20605;-84
2024/03/12 04:35:09;;;;;;;57.77;29.77;;;7.50;99.90;;;;;;5058486;28;20170;-84
2024/03/12 04:37:35;;;;;;;53.20;28.60;;;7.50;99.90;;;;;;5058731;28;20194;-83
2024/03/12 04:40:06;;;;;;;51.73;27.27;;;7.50;99.90;;;;;;5076824;28;20228;-85
2024/03/12 04:42:36;;;;;;;46.10;25.80;;;7.50;99.90;;;;;;5076744;28;20178;-84
2024/03/12 04:45:04;;;;;;;49.40;25.67;;;7.50;99.90;;;;;;5059118;28;20189;-84
2024/03/12 04:47:32;;;;;;;44.80;25.70;;;7.50;99.90;;;;;;5058589;28;20202;-84
2024/03/12 04:49:58;;;;;;;52.80;28.27;;;7.50;99.90;;;;;;5058682;28;20218;-84
2024/03/12 04:52:24;;;;;;;47.20;26.40;;;7.50;99.90;;;;;;5058716;28;20690;-83
2024/03/12 04:54:49;;;;;;;48.67;25.70;;;7.50;99.90;;;;;;5058693;28;20616;-84
2024/03/12 04:57:16;;;;;;;58.17;27.67;;;7.50;99.90;;;;;;5078727;28;20285;-85
2024/03/12 04:59:41;;;;;;;52.47;28.20;;;7.60;99.90;;;;;;5043622;28;20178;-84
2024/03/12 05:02:07;;;;;;;53.67;28.13;;;7.50;99.90;;;;;;5060022;28;20208;-84
2024/03/12 05:04:33;;;;;;;56.03;28.60;;;7.60;99.90;;;;;;5058239;28;20178;-85
2024/03/12 05:06:59;;;;;;;51.57;27.53;;;7.60;99.90;;;;;;5059940;28;20190;-84
2024/03/12 05:09:24;;;;;;;54.80;29.93;;;7.60;99.90;;;;;;5060438;28;20224;-83
2024/03/12 05:11:50;;;;;;;53.33;28.37;;;7.50;99.90;;;;;;5076035;28;20174;-84
2024/03/12 05:14:16;;;;;;;55.43;27.50;;;7.60;99.90;;;;;;5059654;28;20201;-84
2024/03/12 05:16:41;;;;;;;60.23;28.50;;;7.50;99.90;;;;;;5058604;28;20637;-84
2024/03/12 05:19:10;;;;;;;56.93;29.67;;;7.50;99.90;;;;;;5058569;28;20225;-84
2024/03/12 05:21:36;;;;;;;64.83;30.23;;;7.50;99.90;;;;;;5059609;28;20330;-85
2024/03/12 05:24:04;;;;;;;52.07;28.40;;;7.50;99.90;;;;;;5076311;28;20180;-84
2024/03/12 05:26:31;;;;;;;58.17;30.70;;;7.40;99.90;;;;;;5059273;28;20205;-84
2024/03/12 05:28:58;;;;;;;55.37;26.43;;;7.40;99.90;;;;;;5059279;28;20204;-85
2024/03/12 05:31:37;;;;;;;66.57;30.20;;;7.40;99.90;;;;;;5058432;28;20177;-88
2024/03/12 05:34:03;;;;;;;63.33;29.93;;;7.30;99.90;;;;;;5058855;28;20208;-85
2024/03/12 05:36:30;;;;;;;60.43;30.00;;;7.40;99.90;;;;;;5058051;28;20257;-85
2024/03/12 05:39:05;;;;;;;61.93;31.03;;;7.30;99.90;;;;;;5058114;28;20198;-86
2024/03/12 05:41:49;;;;;;;63.53;29.17;;;7.30;99.90;;;;;;5075751;28;20165;-84
2024/03/12 05:49:44;;;;;;;65.43;28.63;;;7.30;99.90;;;;;;5056757;28;20186;-87
2024/03/12 05:52:10;;;;;;;63.43;29.90;;;7.40;99.90;;;;;;5055807;28;20546;-85
2024/03/12 05:54:36;;;;;;;57.27;30.30;;;7.30;99.90;;;;;;5058738;28;20208;-85
2024/03/12 05:57:02;;;;;;;58.17;29.03;;;7.40;99.90;;;;;;5058601;28;20178;-85
2024/03/12 05:59:28;;;;;;;65.17;32.37;;;7.30;99.90;;;;;;5063952;28;20170;-85
2024/03/12 06:01:54;;;;;;;60.07;28.57;;;7.40;99.90;;;;;;5078338;28;20260;-86
2024/03/12 06:04:20;;;;;;;63.33;30.67;;;7.40;99.90;;;;;;5059397;28;20198;-85
2024/03/12 06:06:47;;;;;;;67.87;30.20;;;7.30;99.90;;;;;;5058902;28;20336;-88
2024/03/12 06:09:12;;;;;;;58.10;28.13;;;7.30;99.90;;;;;;5057835;28;20549;-85
2024/03/12 06:11:39;;;;;;;69.47;32.83;;;7.40;99.90;;;;;;5058628;28;20184;-84
2024/03/12 06:14:06;;;;;;;69.53;33.00;;;7.30;99.90;;;;;;5058257;28;20229;-84
2024/03/12 06:16:33;;;;;;;62.77;30.17;;;7.30;99.90;;;;;;5063698;28;20173;-86
2024/03/12 06:18:59;;;;;;;57.70;31.17;;;7.30;99.90;;;;;;5075578;28;20194;-85
2024/03/12 06:21:24;;;;;;;70.30;32.17;;;7.40;99.90;;;;;;5057885;28;20174;-85
2024/03/12 06:23:53;;;;;;;69.17;32.03;;;7.40;99.90;;;;;;5060599;28;20182;-86
2024/03/12 06:26:19;;;;;;;63.43;30.57;;;7.40;99.90;;;;;;5063803;28;20181;-86
2024/03/12 06:28:45;;;;;;;64.77;30.70;;;7.40;99.90;;;;;;5083472;28;20213;-86
2024/03/12 06:31:11;;;;;;;65.13;30.50;;;7.40;99.90;;;;;;5058239;28;20640;-85
2024/03/12 06:33:39;;;;;;;61.63;29.33;;;7.50;99.90;;;;;;5056343;28;20255;-85
2024/03/12 06:36:05;;;;;;;61.70;29.50;;;7.40;99.90;;;;;;5040647;28;20553;-85
2024/03/12 06:38:31;;;;;;;54.57;27.47;;;7.40;99.90;;;;;;5060943;28;20204;-85
2024/03/12 06:40:57;;;;;;;65.13;30.07;;;7.50;99.90;;;;;;5079497;28;20177;-86
2024/03/12 06:43:23;;;;;;;54.50;26.63;;;7.40;99.90;;;;;;5057006;28;20170;-85
2024/03/12 06:45:49;;;;;;;60.23;28.63;;;7.30;99.90;;;;;;5075701;28;20193;-86
2024/03/12 06:48:17;;;;;;;58.37;29.57;;;7.30;99.90;;;;;;5059574;28;20201;-84
2024/03/12 06:50:44;;;;;;;56.90;27.23;;;7.30;99.90;;;;;;5057947;28;20174;-85
2024/03/12 06:53:09;;;;;;;57.63;27.27;;;7.30;99.90;;;;;;5060209;28;20229;-85
2024/03/12 06:55:35;;;;;;;65.37;29.83;;;7.40;99.90;;;;;;5061013;28;20205;-86
2024/03/12 06:58:11;;;;;;;58.03;29.07;;;7.40;99.90;;;;;;5059520;28;20240;-88
2024/03/12 07:00:37;;;;;;;64.73;29.03;;;7.40;99.90;;;;;;5044544;28;20188;-90
2024/03/12 07:03:07;;;;;;;63.50;29.73;;;7.40;99.90;;;;;;5060085;28;20190;-86
2024/03/12 07:05:36;;;;;;;63.20;29.03;;;7.40;99.90;;;;;;5082482;28;20230;-85
2024/03/12 07:08:05;;;;;;;58.37;29.37;;;7.40;99.90;;;;;;5045046;28;20244;-86
2024/03/12 07:10:31;;;;;;;69.80;30.93;;;7.30;99.90;;;;;;5059631;28;20181;-84
2024/03/12 07:13:00;;;;;;;63.97;31.03;;;7.30;99.90;;;;;;5059914;28;20208;-84
2024/03/12 07:15:27;;;;;;;76.27;30.43;;;7.30;99.90;;;;;;5061241;28;20162;-84
2024/03/12 07:17:53;;;;;;;55.70;28.83;;;7.30;99.90;;;;;;5067846;28;20201;-84
2024/03/12 07:20:21;;;;;;;64.40;30.23;;;7.40;99.90;;;;;;5069945;28;20178;-85
2024/03/12 07:22:47;;;;;;;59.47;30.20;;;7.40;99.90;;;;;;5086792;28;20220;-86
2024/03/12 07:25:15;;;;;;;68.90;29.93;;;7.40;99.90;;;;;;5070029;28;20643;-84
2024/03/12 07:27:40;;;;;;;65.23;30.93;;;7.40;99.90;;;;;;5071236;28;20197;-84
2024/03/12 07:30:09;;;;;;;64.70;31.70;;;7.50;99.90;;;;;;5079458;28;20182;-84
2024/03/12 07:32:35;;;;;;;62.27;30.73;;;7.50;99.90;;;;;;5044012;28;20202;-84
2024/03/12 07:35:03;;;;;;;69.80;31.03;;;7.50;99.90;;;;;;5077646;28;20267;-84
2024/03/12 07:37:29;;;;;;;62.93;30.13;;;7.60;99.90;;;;;;5059780;28;20194;-84
2024/03/12 07:39:55;;;;;;;64.47;30.20;;;7.60;99.90;;;;;;5057842;28;20200;-84
2024/03/12 07:42:20;;;;;;;64.17;30.13;;;7.60;99.90;;;;;;5061305;28;20670;-84
2024/03/12 07:44:48;;;;;;;58.50;30.37;;;7.60;99.90;;;;;;5059774;28;20181;-84
2024/03/12 07:47:18;;;;;;;53.03;28.77;;;7.60;99.90;;;;;;5059898;28;20174;-84
2024/03/12 07:49:45;;;;;;;52.17;28.60;;;7.70;99.90;;;;;;5059008;28;20178;-84
2024/03/12 07:52:13;;;;;;;59.13;28.93;;;7.60;99.90;;;;;;5059604;28;20167;-84
2024/03/12 07:54:40;;;;;;;60.60;29.13;;;7.60;99.90;;;;;;5060934;28;20173;-85
2024/03/12 07:57:11;;;;;;;63.97;31.23;;;7.60;99.90;;;;;;5042742;28;20179;-84
2024/03/12 07:59:37;;;;;;;65.20;29.47;;;7.60;99.90;;;;;;5059351;28;20171;-83
2024/03/12 08:02:11;;;;;;;65.60;31.67;;;7.60;99.90;;;;;;5059653;28;20170;-84
2024/03/12 08:04:42;;;;;;;67.23;31.93;;;7.50;99.90;;;;;;5058853;28;20176;-84
2024/03/12 08:07:14;;;;;;;69.97;32.10;;;7.60;99.90;;;;;;5073136;28;20678;-84
2024/03/12 08:09:43;;;;;;;73.83;32.63;;;7.60;99.90;;;;;;5058787;28;20174;-83
2024/03/12 08:12:13;;;;;;;77.50;32.93;;;7.60;99.90;;;;;;5078673;28;20170;-84
2024/03/12 08:14:40;;;;;;;69.13;30.97;;;7.60;99.90;;;;;;5077666;28;20253;-84
2024/03/12 08:17:12;;;;;;;70.90;31.97;;;7.70;99.90;;;;;;5059252;28;20170;-85
2024/03/12 08:19:38;;;;;;;67.77;29.37;;;7.70;99.90;;;;;;5060255;28;20170;-86
2024/03/12 08:22:07;;;;;;;65.23;31.73;;;7.70;99.90;;;;;;5042087;28;20182;-85
2024/03/12 08:24:32;;;;;;;66.30;32.07;;;7.60;99.90;;;;;;5042244;28;20185;-85
2024/03/12 08:26:58;;;;;;;67.07;30.80;;;7.60;99.90;;;;;;5058384;28;20174;-86
2024/03/12 08:29:24;;;;;;;75.83;32.50;;;7.70;99.90;;;;;;5058324;28;20227;-86
2024/03/12 08:31:50;;;;;;;57.93;30.73;;;7.60;99.90;;;;;;5058747;28;20529;-85
2024/03/12 08:34:15;;;;;;;61.93;31.37;;;7.70;99.90;;;;;;5058962;28;20260;-86
2024/03/12 08:36:49;;;;;;;62.67;29.87;;;7.70;99.90;;;;;;5059192;28;20166;-85
2024/03/12 08:39:15;;;;;;;55.67;28.17;;;7.60;99.90;;;;;;5073341;28;20558;-87
2024/03/12 08:41:43;;;;;;;63.20;28.87;;;7.70;99.90;;;;;;5077063;28;20170;-88
2024/03/12 08:44:09;;;;;;;62.23;29.83;;;7.70;99.90;;;;;;5059997;28;20197;-86
2024/03/12 08:46:36;;;;;;;60.93;30.83;;;7.80;99.90;;;;;;5077383;28;20216;-86
2024/03/12 08:49:05;;;;;;;64.33;29.70;;;7.70;99.90;;;;;;5058991;28;20407;-86
2024/03/12 08:51:35;;;;;;;60.73;29.27;;;7.80;99.90;;;;;;5058335;28;20185;-85
2024/03/12 08:54:04;;;;;;;54.83;28.80;;;7.80;99.90;;;;;;5058362;28;20228;-85
2024/03/12 08:56:30;;;;;;;56.53;28.83;;;7.80;99.90;;;;;;5058450;28;20177;-85
2024/03/12 08:58:59;;;;;;;50.70;26.57;;;7.80;99.90;;;;;;5076075;28;20457;-84
2024/03/12 09:01:25;;;;;;;52.80;26.77;;;7.70;99.90;;;;;;5058709;28;20662;-86
2024/03/12 09:03:52;;;;;;;59.13;27.60;;;7.80;99.90;;;;;;5057224;28;20182;-85
2024/03/12 09:06:18;;;;;;;57.40;28.03;;;7.80;99.90;;;;;;5056921;28;20255;-86
2024/03/12 09:08:45;;;;;;;50.63;28.77;;;7.80;99.90;;;;;;5056316;28;20309;-85
2024/03/12 09:11:16;;;;;;;50.97;27.43;;;7.80;99.90;;;;;;5064743;28;20159;-84
2024/03/12 09:13:43;;;;;;;47.73;25.07;;;7.90;99.90;;;;;;5092725;28;20194;-85
2024/03/12 09:16:12;;;;;;;47.27;27.70;;;8.00;99.90;;;;;;5060161;28;20162;-85
2024/03/12 09:18:42;;;;;;;43.10;25.83;;;8.10;99.90;;;;;;5076270;28;20263;-84
2024/03/12 09:21:09;;;;;;;44.37;26.53;;;8.20;99.90;;;;;;5061955;28;20250;-85
2024/03/12 09:23:35;;;;;;;49.30;27.50;;;8.30;99.90;;;;;;5056169;28;20178;-85
2024/03/12 09:26:03;;;;;;;52.03;28.43;;;8.40;99.90;;;;;;5057245;28;20243;-87
2024/03/12 09:28:31;;;;;;;45.90;27.43;;;8.40;99.90;;;;;;5057129;28;20602;-86
2024/03/12 09:30:57;;;;;;;46.17;26.17;;;8.40;99.90;;;;;;5056874;28;20243;-87
2024/03/12 09:33:25;;;;;;;45.17;25.20;;;8.30;99.90;;;;;;5055945;28;20699;-87
2024/03/12 09:35:51;;;;;;;50.70;25.23;;;8.30;99.90;;;;;;5074166;28;20233;-87
2024/03/12 09:38:17;;;;;;;45.10;25.17;;;8.30;99.90;;;;;;5055750;28;20209;-86
2024/03/12 09:40:45;;;;;;;42.00;26.57;;;8.30;99.90;;;;;;5072844;28;20182;-88
2024/03/12 09:43:13;;;;;;;40.27;25.70;;;8.30;99.90;;;;;;5075201;28;20247;-86
2024/03/12 09:45:39;;;;;;;40.83;25.50;;;8.40;99.90;;;;;;5056943;28;20177;-85
2024/03/12 09:48:08;;;;;;;44.07;26.17;;;8.30;99.90;;;;;;5056581;28;20198;-84
2024/03/12 09:50:35;;;;;;;41.30;26.00;;;8.40;99.90;;;;;;5075930;28;20182;-85
2024/03/12 09:53:02;;;;;;;43.10;25.30;;;8.40;99.90;;;;;;5063969;28;20633;-87
2024/03/12 09:55:31;;;;;;;38.83;23.80;;;8.40;99.90;;;;;;5059408;28;20178;-85
2024/03/12 09:57:59;;;;;;;36.10;22.93;;;8.40;99.90;;;;;;5057684;28;20190;-85
2024/03/12 10:00:28;;;;;;;38.63;23.97;;;8.40;99.90;;;;;;5057220;28;20195;-86
2024/03/12 10:02:55;;;;;;;33.90;23.37;;;8.40;99.90;;;;;;5057249;28;20182;-86
2024/03/12 10:05:21;;;;;;;38.77;23.00;;;8.50;99.90;;;;;;5060038;28;20636;-86
2024/03/12 10:08:08;;;;;;;38.73;22.97;;;8.50;99.90;;;;;;5056828;28;20256;-86
2024/03/12 10:10:38;;;;;;;32.67;22.07;;;8.50;99.90;;;;;;5080075;28;20186;-87
2024/03/12 10:13:04;;;;;;;35.83;21.67;;;8.60;99.90;;;;;;5057029;28;20201;-86
2024/03/12 10:15:31;;;;;;;36.10;20.27;;;8.60;99.90;;;;;;5061132;28;20181;-87
2024/03/12 10:18:01;;;;;;;37.50;20.93;;;8.60;99.90;;;;;;5056711;28;20197;-87
2024/03/12 10:20:27;;;;;;;34.37;20.43;;;8.60;99.90;;;;;;5067098;28;20174;-87
2024/03/12 10:23:15;;;;;;;37.67;20.93;;;8.50;99.90;;;;;;5064831;28;20200;-86
2024/03/12 10:25:44;;;;;;;32.00;20.33;;;8.50;99.90;;;;;;5082736;28;20170;-88
2024/03/12 10:28:14;;;;;;;31.00;20.43;;;8.60;99.90;;;;;;5069365;28;20221;-88
2024/03/12 10:30:41;;;;;;;32.80;21.33;;;8.70;99.90;;;;;;5058552;28;20211;-86
2024/03/12 10:33:17;;;;;;;42.10;21.70;;;8.80;99.90;;;;;;5058059;28;20198;-87
2024/03/12 10:35:46;;;;;;;32.40;21.73;;;8.70;99.90;;;;;;5075332;28;20253;-87
2024/03/12 10:38:26;;;;;;;32.67;21.53;;;8.80;99.90;;;;;;5075177;28;20194;-87
2024/03/12 10:40:55;;;;;;;29.80;20.67;;;8.70;99.90;;;;;;5056400;28;20712;-87
2024/03/12 10:43:21;;;;;;;28.63;20.20;;;8.80;99.90;;;;;;5055398;28;20181;-86
2024/03/12 10:45:50;;;;;;;34.00;21.13;;;8.90;99.90;;;;;;5055621;28;20170;-87
2024/03/12 10:48:18;;;;;;;34.83;21.20;;;9.00;99.90;;;;;;5056580;28;20202;-85
2024/03/12 10:50:44;;;;;;;32.67;20.93;;;9.00;99.90;;;;;;5056264;28;20178;-85
2024/03/12 10:53:11;;;;;;;30.27;21.47;;;9.10;99.90;;;;;;5056012;28;20204;-84
2024/03/12 10:55:38;;;;;;;34.43;21.73;;;9.20;99.90;;;;;;5074762;28;20640;-85
2024/03/12 10:58:08;;;;;;;35.30;23.00;;;9.30;99.90;;;;;;5056134;28;20690;-84
2024/03/12 11:00:39;;;;;;;38.47;22.90;;;9.30;99.90;;;;;;5078008;28;20162;-85
2024/03/12 11:03:08;;;;;;;37.33;22.40;;;9.40;99.90;;;;;;5059721;28;20174;-87
2024/03/12 11:05:35;;;;;;;36.60;23.33;;;9.30;99.90;;;;;;5058452;28;20182;-86
2024/03/12 11:08:01;;;;;;;39.63;24.93;;;9.30;99.90;;;;;;5055949;28;20717;-87
2024/03/12 11:10:32;;;;;;;34.70;22.90;;;9.20;99.90;;;;;;5077671;28;20264;-86
2024/03/12 11:13:05;;;;;;;38.33;23.20;;;9.20;99.90;;;;;;5059670;28;20256;-87
2024/03/12 11:15:33;;;;;;;34.73;22.37;;;9.20;99.90;;;;;;5042963;28;20310;-86
2024/03/12 11:17:59;;;;;;;37.63;23.60;;;9.30;99.90;;;;;;5060127;28;20251;-87
2024/03/12 11:20:25;;;;;;;39.10;25.83;;;9.40;99.90;;;;;;5059227;28;20166;-87
2024/03/12 11:22:56;;;;;;;34.27;24.07;;;9.40;99.90;;;;;;5077233;28;20585;-87
2024/03/12 11:25:35;;;;;;;34.73;23.33;;;9.50;99.90;;;;;;5059654;28;20177;-84
2024/03/12 11:28:22;;;;;;;37.53;23.13;;;9.60;99.90;;;;;;5059333;28;20196;-84
2024/03/12 11:31:11;;;;;;;35.67;23.17;;;9.60;99.90;;;;;;5077186;28;20232;-85
2024/03/12 11:33:51;;;;;;;34.20;22.87;;;9.70;99.90;;;;;;5078601;28;20689;-85
2024/03/12 11:36:45;;;;;;;35.77;24.07;;;9.80;99.90;;;;;;5061251;28;20178;-87
2024/03/12 11:39:23;;;;;;;34.77;21.63;;;9.80;99.90;;;;;;5060368;28;20544;-87
2024/03/12 11:42:01;;;;;;;31.30;21.93;;;9.90;99.90;;;;;;5060847;28;20643;-87
2024/03/12 11:44:48;;;;;;;36.27;21.97;;;10.00;99.90;;;;;;5059262;28;20178;-87
2024/03/12 11:47:38;;;;;;;32.57;22.23;;;10.00;99.90;;;;;;5078042;28;20217;-87
2024/03/12 11:50:39;;;;;;;34.10;22.63;;;10.00;99.90;;;;;;5059886;28;20182;-87
2024/03/12 11:53:28;;;;;;;32.97;21.93;;;10.00;99.90;;;;;;5040669;28;20225;-86
2024/03/12 11:55:58;;;;;;;35.13;22.63;;;10.10;99.90;;;;;;5040449;28;20614;-84
2024/03/12 11:58:44;;;;;;;31.90;21.33;;;10.30;99.90;;;;;;5039969;28;20195;-88
2024/03/12 12:01:14;;;;;;;35.30;21.70;;;10.50;99.90;;;;;;5058437;28;20170;-87
2024/03/12 12:03:43;;;;;;;30.10;22.43;;;10.70;99.90;;;;;;5057251;28;20186;-87
2024/03/12 12:06:12;;;;;;;30.23;20.73;;;11.10;99.90;;;;;;5048781;28;20235;-87
2024/03/12 12:08:38;;;;;;;29.43;19.43;;;11.40;99.90;;;;;;5042827;28;20312;-87
2024/03/12 12:11:09;;;;;;;33.00;21.03;;;11.70;99.90;;;;;;5058071;28;20225;-85
2024/03/12 12:13:41;;;;;;;28.57;20.20;;;12.00;99.90;;;;;;5062075;28;20205;-88
2024/03/12 12:16:14;;;;;;;30.83;19.67;;;12.10;99.90;;;;;;5063619;28;20177;-88
2024/03/12 12:18:40;;;;;;;31.73;19.63;;;12.20;99.90;;;;;;5060340;28;20261;-87
2024/03/12 12:21:16;;;;;;;27.93;18.97;;;12.30;99.90;;;;;;5059337;28;20174;-87
2024/03/12 12:23:44;;;;;;;30.67;19.70;;;12.60;99.90;;;;;;5074172;28;20226;-88
2024/03/12 12:26:21;;;;;;;24.77;17.37;;;12.70;99.90;;;;;;5058445;28;20265;-87
2024/03/12 12:28:48;;;;;;;27.97;19.23;;;12.60;99.90;;;;;;5066079;28;20242;-87
2024/03/12 12:31:21;;;;;;;26.97;18.73;;;12.40;99.90;;;;;;5060070;28;20177;-87
2024/03/12 12:33:53;;;;;;;29.03;19.90;;;12.20;99.90;;;;;;5059549;28;20675;-87
2024/03/12 12:36:25;;;;;;;26.63;19.97;;;12.20;99.90;;;;;;5059363;28;20550;-87
2024/03/12 12:38:53;;;;;;;29.87;19.67;;;12.20;99.90;;;;;;5076629;28;20186;-87
2024/03/12 12:41:22;;;;;;;32.70;20.20;;;12.20;99.90;;;;;;5058527;28;20550;-87
2024/03/12 12:43:52;;;;;;;28.20;19.93;;;12.20;99.90;;;;;;5076741;28;20171;-84
2024/03/12 12:46:25;;;;;;;26.97;18.93;;;12.10;99.90;;;;;;5059483;28;20171;-85